sim
Sign-in with your pilot id or email,
or register
Callsign
Passwort

Schedule Details

Flight Number: DLH2067 (1)
Departure: Hamburg Airport (EDDH) at 11:20
Arrival: Munich Airport (EDDM) at 12:35
Route: Lufthansa Passenger Schedule. Enter filed route here before submitting Pirep.

Weather Information
Getting current METAR information for EDDH 250650Z 16009KT 9999 -RA BKN017 14/11 Q0995 BECMG 22010KT
Getting current METAR information for EDDM 250650Z 20007KT 9999 RA FEW020 BKN040 12/11 Q1001 TEMPO 28015G25KT

Schedule Frequency

Route Map